Time;durP1;ratioP1;P1;durP2;ratioP2;P2;SDS_P1;SDS_P2;PMS_P1;PMS_P2;Temp;Humidity;BMP_temperature;BMP_pressure;BME280_temperature;BME280_humidity;BME280_pressure;Samples;Min_cycle;Max_cycle;Signal;HPM_P1;HPM_P2
2022/01/19 00:01:26;;;;;;;13.55;3.90;;;;;;;4.31;100.00;99641.72;5036289;28;20045;-58
2022/01/19 00:03:52;;;;;;;12.40;3.67;;;;;;;4.23;100.00;99640.78;5037464;28;20033;-58
2022/01/19 00:06:18;;;;;;;12.13;3.50;;;;;;;4.49;100.00;99624.69;5036058;28;20380;-58
2022/01/19 00:08:44;;;;;;;10.48;3.50;;;;;;;4.31;100.00;99622.78;5037041;28;20147;-59
2022/01/19 00:11:10;;;;;;;15.10;4.05;;;;;;;4.45;100.00;99605.69;5034941;28;20116;-57
2022/01/19 00:13:36;;;;;;;14.80;4.30;;;;;;;4.49;100.00;99601.44;5037065;28;20075;-57
2022/01/19 00:16:01;;;;;;;12.35;3.80;;;;;;;4.47;100.00;99575.56;5036384;28;20041;-58
2022/01/19 00:18:27;;;;;;;12.15;3.85;;;;;;;4.44;100.00;99566.06;5036819;28;20748;-59
2022/01/19 00:20:54;;;;;;;14.88;4.53;;;;;;;4.28;100.00;99571.94;5035670;28;20040;-57
2022/01/19 00:23:21;;;;;;;11.68;3.95;;;;;;;4.62;100.00;99562.75;5037024;28;20014;-59
2022/01/19 00:25:47;;;;;;;14.27;4.47;;;;;;;4.23;100.00;99558.13;5036112;28;20037;-58
2022/01/19 00:28:13;;;;;;;10.52;3.65;;;;;;;4.22;100.00;99557.25;5036525;28;20108;-58
2022/01/19 00:30:39;;;;;;;11.43;3.85;;;;;;;4.32;100.00;99552.16;5036012;28;20119;-59
2022/01/19 00:33:05;;;;;;;12.30;3.83;;;;;;;4.35;100.00;99547.88;5036173;28;20021;-56
2022/01/19 00:35:31;;;;;;;12.50;3.78;;;;;;;4.10;100.00;99557.13;5035564;28;20033;-57
2022/01/19 00:37:57;;;;;;;13.20;3.90;;;;;;;4.15;100.00;99559.75;5036121;28;20410;-59
2022/01/19 00:40:22;;;;;;;13.73;3.78;;;;;;;4.45;100.00;99566.94;5036122;28;20025;-60
2022/01/19 00:42:49;;;;;;;14.13;3.90;;;;;;;4.62;100.00;99559.31;5036582;28;20017;-57
2022/01/19 00:45:15;;;;;;;11.35;3.83;;;;;;;4.41;100.00;99562.56;5035749;28;20021;-59
2022/01/19 00:47:41;;;;;;;14.80;4.13;;;;;;;4.61;100.00;99549.81;5036730;28;20032;-59
2022/01/19 00:50:09;;;;;;;13.45;4.25;;;;;;;4.22;100.00;99551.22;5040250;28;20021;-58
2022/01/19 00:52:35;;;;;;;12.27;3.65;;;;;;;4.62;100.00;99538.66;5040364;28;20067;-59
2022/01/19 00:55:04;;;;;;;10.65;3.72;;;;;;;4.58;100.00;99529.16;5040493;28;20021;-57
2022/01/19 00:57:30;;;;;;;11.63;4.10;;;;;;;4.53;100.00;99525.66;5040118;28;20080;-59
2022/01/19 00:59:55;;;;;;;11.10;3.70;;;;;;;4.47;100.00;99528.16;5040596;28;20025;-59
2022/01/19 01:02:20;;;;;;;11.15;3.92;;;;;;;4.39;100.00;99523.84;5039578;28;20045;-58
2022/01/19 01:04:46;;;;;;;11.55;3.58;;;;;;;4.14;100.00;99511.56;5040402;28;20068;-58
2022/01/19 01:07:12;;;;;;;12.13;3.88;;;;;;;4.47;100.00;99502.31;5038988;28;20033;-60
2022/01/19 01:09:37;;;;;;;9.77;3.22;;;;;;;4.01;100.00;99514.00;5040525;28;20116;-59
2022/01/19 01:12:19;;;;;;;12.25;3.85;;;;;;;4.40;100.00;99506.59;5039394;28;20037;-58
2022/01/19 01:20:38;;;;;;;12.63;4.30;;;;;;;3.64;100.00;99499.88;4977179;28;20046;-58
2022/01/19 01:23:04;;;;;;;12.25;3.78;;;;;;;3.62;100.00;99496.38;4977608;28;20447;-59
2022/01/19 01:25:30;;;;;;;11.63;3.70;;;;;;;3.95;100.00;99490.72;5008133;28;20647;-57
2022/01/19 01:27:55;;;;;;;15.15;4.38;;;;;;;3.77;100.00;99480.22;5039841;28;20703;-58
2022/01/19 01:30:20;;;;;;;13.52;4.43;;;;;;;3.89;100.00;99464.81;5039311;28;20021;-59
2022/01/19 01:32:46;;;;;;;11.32;3.80;;;;;;;4.03;100.00;99455.50;5039736;28;20112;-59
2022/01/19 01:35:12;;;;;;;12.75;3.90;;;;;;;3.93;100.00;99443.34;5039132;28;20025;-58
2022/01/19 01:37:37;;;;;;;13.70;4.53;;;;;;;4.05;100.00;99430.56;5039792;28;20017;-60
2022/01/19 01:40:04;;;;;;;10.60;3.75;;;;;;;3.78;100.00;99428.59;5039382;28;20029;-58
2022/01/19 01:42:30;;;;;;;15.90;4.63;;;;;;;3.87;100.00;99427.81;5038300;28;20122;-59
2022/01/19 01:44:59;;;;;;;14.57;3.95;;;;;;;4.22;100.00;99443.59;5039702;28;20128;-58
2022/01/19 01:47:26;;;;;;;13.05;4.22;;;;;;;4.03;100.00;99445.16;5039151;28;20044;-59
2022/01/19 01:55:13;;;;;;;13.57;4.70;;;;;;;4.06;100.00;99446.91;5039134;28;20138;-60
2022/01/19 01:57:38;;;;;;;11.77;4.20;;;;;;;3.89;100.00;99446.75;5039954;28;20451;-58
2022/01/19 02:00:06;;;;;;;13.10;4.00;;;;;;;4.10;100.00;99452.97;5038358;28;20072;-60
2022/01/19 02:02:32;;;;;;;13.57;3.88;;;;;;;4.28;100.00;99442.78;5038726;28;20503;-59
2022/01/19 02:04:57;;;;;;;14.80;5.10;;;;;;;4.01;100.00;99428.81;5038931;28;20044;-59
2022/01/19 02:07:39;;;;;;;12.43;4.35;;;;;;;4.17;100.00;99424.63;5038789;28;20044;-58
2022/01/19 02:10:07;;;;;;;14.40;4.25;;;;;;;4.50;100.00;99419.66;5038975;28;20086;-59
2022/01/19 02:23:44;;;;;;;13.82;4.57;;;;;;;3.85;100.00;99394.22;5039000;28;20036;-61
2022/01/19 02:26:16;;;;;;;12.67;4.23;;;;;;;4.32;100.00;99394.56;5037594;28;20063;-59
2022/01/19 02:40:15;;;;;;;14.25;5.38;;;;;;;3.81;100.00;99389.06;5038874;28;20037;-58
2022/01/19 02:50:58;;;;;;;13.10;5.25;;;;;;;4.49;100.00;99374.03;5037391;28;20043;-57
2022/01/19 02:53:23;;;;;;;21.90;6.40;;;;;;;4.31;100.00;99370.47;5037963;28;20032;-59
2022/01/19 02:55:49;;;;;;;15.25;5.70;;;;;;;3.88;100.00;99362.44;5037489;28;20064;-57
2022/01/19 02:58:18;;;;;;;15.13;5.50;;;;;;;4.11;100.00;99351.41;5038092;28;20036;-57
2022/01/19 03:08:43;;;;;;;17.88;6.18;;;;;;;4.31;100.00;99347.22;5036692;28;20048;-59
2022/01/19 03:09:12;;;;;;;15.65;5.38;;;;;;;4.29;100.00;99333.44;5037683;28;20616;-58
2022/01/19 03:11:37;;;;;;;13.57;5.53;;;;;;;4.34;100.00;99329.16;5036987;28;20069;-58
2022/01/19 03:14:07;;;;;;;15.95;6.63;;;;;;;3.85;100.00;99328.84;5037751;28;20118;-60
2022/01/19 03:16:33;;;;;;;15.75;5.85;;;;;;;4.20;100.00;99326.50;5037229;28;20052;-58
2022/01/19 03:18:58;;;;;;;12.90;5.40;;;;;;;4.54;100.00;99330.97;5037802;28;20035;-59
2022/01/19 03:21:23;;;;;;;18.40;6.40;;;;;;;4.43;100.00;99328.34;5035040;28;20029;-57
2022/01/19 03:23:49;;;;;;;15.50;6.10;;;;;;;4.18;100.00;99317.03;5035885;28;20115;-57
2022/01/19 03:26:14;;;;;;;18.48;6.55;;;;;;;4.07;100.00;99319.53;5034909;28;20040;-58
2022/01/19 03:28:39;;;;;;;18.02;7.18;;;;;;;4.18;100.00;99327.34;5037870;28;20332;-58
2022/01/19 03:31:05;;;;;;;19.25;6.70;;;;;;;4.18;100.00;99327.34;5037012;28;20056;-58
2022/01/19 03:33:31;;;;;;;18.05;6.50;;;;;;;4.21;100.00;99332.53;5037334;28;20039;-57
2022/01/19 03:35:56;;;;;;;19.40;6.90;;;;;;;4.16;100.00;99326.47;5036689;28;20043;-57
2022/01/19 03:38:22;;;;;;;15.77;6.18;;;;;;;4.28;100.00;99329.13;5037396;28;20463;-58
2022/01/19 03:40:47;;;;;;;14.55;6.28;;;;;;;4.55;100.00;99322.38;5036391;28;20540;-59
2022/01/19 03:43:12;;;;;;;14.38;5.53;;;;;;;4.33;100.00;99322.25;5036557;28;20205;-58
2022/01/19 03:45:38;;;;;;;17.10;6.88;;;;;;;4.49;100.00;99314.59;5036472;28;20078;-57
2022/01/19 03:48:32;;;;;;;17.73;6.72;;;;;;;4.62;100.00;99316.38;5037463;28;20745;-56
2022/01/19 03:50:57;;;;;;;18.02;6.85;;;;;;;4.47;100.00;99317.19;5034675;28;20586;-57
2022/01/19 03:53:23;;;;;;;18.75;7.22;;;;;;;4.54;100.00;99315.47;5037114;28;20021;-58
2022/01/19 03:55:48;;;;;;;20.42;7.47;;;;;;;4.33;100.00;99322.25;5036349;28;20272;-58
2022/01/19 03:58:13;;;;;;;17.95;6.75;;;;;;;4.46;100.00;99317.16;5036630;28;20037;-59
2022/01/19 04:00:42;;;;;;;18.17;7.75;;;;;;;4.52;100.00;99314.59;5036698;28;20028;-58
2022/01/19 04:03:11;;;;;;;22.52;7.97;;;;;;;4.52;100.00;99324.94;5036659;28;20028;-59
2022/01/19 04:05:53;;;;;;;17.30;7.20;;;;;;;4.65;100.00;99324.16;5036157;28;20313;-59
2022/01/19 04:08:18;;;;;;;18.63;7.77;;;;;;;4.85;100.00;99326.78;5035261;28;20410;-57
2022/01/19 04:10:44;;;;;;;17.15;6.68;;;;;;;4.54;100.00;99321.53;5036183;28;20557;-59
2022/01/19 04:13:22;;;;;;;17.35;6.68;;;;;;;4.87;100.00;99314.75;5036433;28;20042;-58
2022/01/19 04:15:48;;;;;;;14.93;5.97;;;;;;;4.96;100.00;99314.78;5034734;28;20082;-58
2022/01/19 04:18:13;;;;;;;17.25;7.75;;;;;;;4.55;100.00;99306.88;5036881;28;20033;-58
2022/01/19 04:20:42;;;;;;;14.70;6.10;;;;;;;4.80;100.00;99316.44;5036144;28;20426;-57
2022/01/19 04:23:07;;;;;;;12.88;4.90;;;;;;;5.29;100.00;99314.81;5036127;28;20410;-59
2022/01/19 04:25:33;;;;;;;23.30;8.73;;;;;;;4.60;100.00;99305.16;5036187;28;20037;-58
2022/01/19 04:27:58;;;;;;;16.80;7.57;;;;;;;4.69;100.00;99294.88;5036344;28;20036;-57
2022/01/19 04:30:27;;;;;;;15.98;7.47;;;;;;;4.42;100.00;99290.44;5035724;28;20500;-58
2022/01/19 04:35:27;;;;;;;19.15;7.85;;;;;;;4.17;100.00;99295.50;5035956;28;20037;-57
2022/01/19 05:07:34;;;;;;;16.73;8.10;;;;;;;4.59;100.00;99251.75;5035931;28;20041;-57
2022/01/19 05:15:10;;;;;;;17.63;7.90;;;;;;;3.55;100.00;99244.31;5036401;28;20494;-58
2022/01/19 05:17:36;;;;;;;19.75;7.45;;;;;;;3.60;100.00;99238.34;5036373;28;20029;-59
2022/01/19 05:20:10;;;;;;;25.02;9.00;;;;;;;4.30;100.00;99239.59;5024813;28;20028;-59
2022/01/19 05:22:35;;;;;;;23.88;9.38;;;;;;;3.88;100.00;99241.13;5031501;28;20479;-57
2022/01/19 05:25:03;;;;;;;22.73;9.15;;;;;;;3.57;100.00;99240.06;5033828;28;20044;-59
2022/01/19 05:27:29;;;;;;;21.17;7.82;;;;;;;3.56;100.00;99236.59;5035348;28;20045;-59
2022/01/19 05:29:54;;;;;;;20.67;7.55;;;;;;;3.67;100.00;99231.50;5035928;28;20036;-58
2022/01/19 05:32:20;;;;;;;21.98;9.13;;;;;;;3.53;100.00;99227.97;5035217;28;20480;-59
2022/01/19 05:34:45;;;;;;;19.85;8.15;;;;;;;3.81;100.00;99211.81;5037701;28;20028;-58
2022/01/19 05:37:11;;;;;;;15.13;5.63;;;;;;;4.07;100.00;99212.81;5039127;28;20234;-58
2022/01/19 05:39:36;;;;;;;20.45;7.90;;;;;;;4.01;100.00;99206.75;5039967;28;20397;-58
2022/01/19 05:42:02;;;;;;;18.02;7.57;;;;;;;3.30;100.00;99202.00;5039263;28;20044;-59
2022/01/19 05:44:27;;;;;;;17.45;6.90;;;;;;;3.44;100.00;99203.84;5037888;28;20284;-57
2022/01/19 05:46:52;;;;;;;18.77;7.28;;;;;;;3.76;100.00;99204.91;5039897;28;20106;-58
2022/01/19 05:49:18;;;;;;;22.55;8.23;;;;;;;3.71;100.00;99207.44;5039524;28;20364;-59
2022/01/19 05:51:43;;;;;;;21.08;7.28;;;;;;;3.59;100.00;99197.91;5038813;28;20136;-58
2022/01/19 05:54:09;;;;;;;18.40;6.93;;;;;;;3.37;100.00;99198.63;5039595;28;20559;-58
2022/01/19 05:56:34;;;;;;;16.08;6.40;;;;;;;3.97;100.00;99199.84;5039342;28;20558;-58
2022/01/19 05:59:00;;;;;;;22.38;7.82;;;;;;;3.28;100.00;99191.69;5040230;28;20380;-58
2022/01/19 06:01:25;;;;;;;24.38;8.25;;;;;;;3.64;100.00;99197.97;5032202;28;20466;-59
2022/01/19 06:03:52;;;;;;;15.98;6.38;;;;;;;3.63;100.00;99189.34;5035981;28;20087;-59
2022/01/19 06:06:18;;;;;;;16.90;7.25;;;;;;;3.38;100.00;99187.44;5040977;28;20037;-57
2022/01/19 06:08:45;;;;;;;17.73;6.30;;;;;;;3.65;100.00;99181.59;5042306;28;20458;-59
2022/01/19 06:11:11;;;;;;;17.00;6.43;;;;;;;3.39;100.00;99191.78;5041715;28;20041;-59
2022/01/19 06:13:37;;;;;;;17.13;6.38;;;;;;;3.33;100.00;99186.53;5041947;28;20033;-57
2022/01/19 06:16:03;;;;;;;15.05;6.13;;;;;;;3.31;100.00;99172.78;5041814;28;20056;-58
2022/01/19 06:18:28;;;;;;;16.52;5.95;;;;;;;3.47;100.00;99177.19;5040810;28;20033;-59
2022/01/19 06:20:54;;;;;;;16.60;6.30;;;;;;;3.74;100.00;99173.91;5041004;28;20044;-59
2022/01/19 06:23:19;;;;;;;15.27;5.82;;;;;;;3.42;100.00;99164.28;5042363;28;20036;-58
2022/01/19 06:25:45;;;;;;;15.82;4.82;;;;;;;3.71;100.00;99154.97;5041569;28;20487;-58
2022/01/19 06:28:10;;;;;;;17.30;6.45;;;;;;;3.53;100.00;99158.31;5042421;28;20047;-60
2022/01/19 06:30:36;;;;;;;17.17;6.18;;;;;;;3.60;100.00;99147.16;5041063;28;20113;-58
2022/01/19 06:33:02;;;;;;;16.83;6.32;;;;;;;4.16;100.00;99153.44;5041840;28;20107;-59
2022/01/19 06:35:28;;;;;;;17.33;5.22;;;;;;;3.61;100.00;99144.59;5041699;28;20037;-59
2022/01/19 06:37:53;;;;;;;17.83;5.50;;;;;;;3.77;100.00;99142.13;5041665;28;20036;-60
2022/01/19 06:40:20;;;;;;;18.38;5.70;;;;;;;4.22;100.00;99143.97;5041390;28;20455;-59
2022/01/19 06:42:46;;;;;;;16.30;5.88;;;;;;;4.00;100.00;99137.88;5041491;28;20566;-57
2022/01/19 06:45:13;;;;;;;14.45;5.68;;;;;;;3.74;100.00;99135.22;5041155;28;20044;-59
2022/01/19 06:47:39;;;;;;;17.58;5.45;;;;;;;3.80;100.00;99134.38;5041320;28;20385;-61
2022/01/19 06:50:08;;;;;;;22.10;5.40;;;;;;;3.65;100.00;99133.44;5041161;28;20052;-61
2022/01/19 06:52:34;;;;;;;15.98;5.68;;;;;;;4.03;100.00;99131.91;5038953;28;20052;-60
2022/01/19 06:54:59;;;;;;;11.77;4.72;;;;;;;4.22;100.00;99122.47;5041922;28;20020;-59
2022/01/19 06:57:25;;;;;;;17.38;5.65;;;;;;;4.11;100.00;99134.50;5041116;28;20425;-59
2022/01/19 06:59:51;;;;;;;16.05;5.10;;;;;;;4.34;100.00;99131.97;5041641;28;20383;-59
2022/01/19 07:02:18;;;;;;;14.73;5.13;;;;;;;4.09;100.00;99125.88;5040321;28;20041;-59
2022/01/19 07:04:48;;;;;;;16.20;5.20;;;;;;;3.55;100.00;99117.91;5041080;28;20179;-57
2022/01/19 07:07:14;;;;;;;18.65;6.45;;;;;;;3.85;100.00;99106.88;5041042;28;20584;-59
2022/01/19 07:09:39;;;;;;;17.95;6.40;;;;;;;3.65;100.00;99111.94;5041444;28;20029;-59
2022/01/19 07:12:05;;;;;;;20.33;5.93;;;;;;;3.94;100.00;99106.91;5040796;28;20422;-59
2022/01/19 07:14:30;;;;;;;16.35;6.30;;;;;;;3.63;100.00;99109.34;5041183;28;20039;-59
2022/01/19 07:16:55;;;;;;;19.23;6.50;;;;;;;3.92;100.00;99102.59;5040521;28;20043;-58
2022/01/19 07:19:21;;;;;;;20.58;6.80;;;;;;;3.67;100.00;99082.69;5041206;28;20024;-60
2022/01/19 07:21:46;;;;;;;15.68;5.82;;;;;;;3.55;100.00;99081.78;5040358;28;20033;-58
2022/01/19 07:24:12;;;;;;;18.38;6.57;;;;;;;3.53;100.00;99068.91;5040993;28;20021;-58
2022/01/19 07:26:37;;;;;;;17.40;7.20;;;;;;;4.08;100.00;99082.84;5040280;28;20075;-59
2022/01/19 07:29:03;;;;;;;18.58;6.68;;;;;;;4.77;100.00;99068.25;5041125;28;20112;-58
2022/01/19 07:31:28;;;;;;;18.00;6.65;;;;;;;5.67;100.00;99055.13;5040194;28;20052;-58
2022/01/19 07:33:54;;;;;;;17.88;6.15;;;;;;;5.76;100.00;99034.38;5040486;28;20124;-59
2022/01/19 07:36:19;;;;;;;14.25;5.90;;;;;;;6.13;100.00;99036.78;5040176;28;20526;-58
2022/01/19 07:38:44;;;;;;;14.38;5.65;;;;;;;7.10;100.00;99034.22;5040671;28;20025;-60
2022/01/19 07:41:10;;;;;;;16.73;6.00;;;;;;;7.25;100.00;99034.94;5039751;28;20132;-59
2022/01/19 07:43:37;;;;;;;17.35;5.75;;;;;;;8.09;100.00;99025.22;5040869;28;20033;-59
2022/01/19 07:46:03;;;;;;;12.50;5.15;;;;;;;8.15;100.00;99022.53;5039464;28;20186;-59
2022/01/19 07:48:28;;;;;;;14.00;5.28;;;;;;;8.17;100.00;99018.16;5040616;28;20417;-59
2022/01/19 07:50:54;;;;;;;11.70;5.00;;;;;;;7.99;100.00;99023.63;5038571;28;20414;-58
2022/01/19 07:53:19;;;;;;;10.20;4.53;;;;;;;8.05;100.00;99018.34;5040150;28;20474;-61
2022/01/19 07:55:46;;;;;;;10.95;4.28;;;;;;;7.11;100.00;99017.81;5039563;28;20422;-59
2022/01/19 07:58:12;;;;;;;13.02;5.35;;;;;;;5.64;100.00;99018.88;5039440;28;20024;-61
2022/01/19 08:00:38;;;;;;;13.23;5.40;;;;;;;5.72;100.00;99022.31;5040093;28;20039;-59
2022/01/19 08:03:04;;;;;;;14.63;4.90;;;;;;;6.04;100.00;99018.72;5040047;28;20074;-58
2022/01/19 08:05:30;;;;;;;14.88;5.63;;;;;;;4.59;100.00;99024.34;5039645;28;20041;-61
2022/01/19 08:07:56;;;;;;;14.70;5.50;;;;;;;5.29;100.00;99007.81;5040261;28;20032;-61
2022/01/19 08:10:21;;;;;;;12.77;4.88;;;;;;;5.15;100.00;99010.47;5039060;28;20100;-59
2022/01/19 08:12:49;;;;;;;12.95;4.90;;;;;;;5.28;100.00;99007.84;5040255;28;20057;-58
2022/01/19 08:15:15;;;;;;;13.77;4.75;;;;;;;5.28;100.00;99010.44;5039869;28;20036;-58
2022/01/19 08:17:40;;;;;;;11.75;4.65;;;;;;;4.97;100.00;99010.50;5040384;28;20016;-59
2022/01/19 08:20:06;;;;;;;15.73;5.15;;;;;;;4.83;100.00;99003.66;5039654;28;20071;-59
2022/01/19 08:22:31;;;;;;;12.68;4.82;;;;;;;4.80;100.00;99000.22;5039900;28;20045;-58
2022/01/19 08:24:57;;;;;;;13.52;5.15;;;;;;;4.80;100.00;99003.66;5039943;28;20398;-57
2022/01/19 08:27:22;;;;;;;14.77;5.22;;;;;;;4.58;100.00;98989.03;5038550;28;20427;-59
2022/01/19 08:29:47;;;;;;;13.52;4.45;;;;;;;4.78;100.00;98997.63;5039979;28;20127;-56
2022/01/19 08:32:13;;;;;;;13.55;5.20;;;;;;;3.95;100.00;99010.53;5039110;28;20541;-57
2022/01/19 08:34:38;;;;;;;12.18;4.80;;;;;;;3.98;100.00;99005.34;5039971;28;20025;-57
2022/01/19 08:37:04;;;;;;;13.82;5.20;;;;;;;4.06;100.00;99002.78;5039505;28;20045;-59
2022/01/19 08:39:29;;;;;;;15.25;5.80;;;;;;;4.63;100.00;99000.19;5039705;28;20461;-58
2022/01/19 08:41:55;;;;;;;13.70;4.90;;;;;;;4.24;100.00;99001.94;5039229;28;20160;-57
2022/01/19 08:44:21;;;;;;;17.90;5.40;;;;;;;4.66;100.00;98999.38;5039515;28;20021;-58
2022/01/19 08:46:48;;;;;;;12.32;4.38;;;;;;;4.64;100.00;98996.78;5039276;28;20045;-58
2022/01/19 08:49:14;;;;;;;13.48;4.80;;;;;;;4.33;100.00;98996.78;5040263;28;20059;-57
2022/01/19 08:51:40;;;;;;;14.40;4.38;;;;;;;4.70;100.00;99003.66;5038840;28;20041;-58
2022/01/19 08:54:05;;;;;;;15.23;5.03;;;;;;;4.27;100.00;99001.97;5039699;28;20035;-58
2022/01/19 08:56:31;;;;;;;14.27;4.85;;;;;;;4.38;100.00;98995.06;5039457;28;20507;-59
2022/01/19 08:58:56;;;;;;;13.38;4.00;;;;;;;4.62;100.00;98993.34;5039672;28;20037;-58
2022/01/19 09:01:23;;;;;;;16.10;4.38;;;;;;;3.97;100.00;98993.34;5038734;28;20048;-59
2022/01/19 09:03:49;;;;;;;14.30;4.40;;;;;;;4.17;100.00;98984.72;5039707;28;20021;-58
2022/01/19 09:06:15;;;;;;;16.55;5.10;;;;;;;3.89;100.00;98986.44;5039380;28;20056;-58
2022/01/19 09:08:40;;;;;;;16.23;5.15;;;;;;;4.35;100.00;98989.88;5039307;28;20027;-58
2022/01/19 09:11:06;;;;;;;17.73;4.80;;;;;;;3.67;100.00;98979.47;5042370;28;20124;-60
2022/01/19 09:13:33;;;;;;;13.40;4.80;;;;;;;3.81;100.00;98982.09;5043910;28;20025;-58
2022/01/19 09:15:58;;;;;;;14.15;4.72;;;;;;;4.26;100.00;98974.41;5041274;28;20060;-59
2022/01/19 09:18:24;;;;;;;15.00;5.28;;;;;;;4.00;100.00;98976.97;5043054;28;20094;-58
2022/01/19 09:20:49;;;;;;;18.13;5.57;;;;;;;4.34;100.00;98970.09;5042670;28;20033;-58
2022/01/19 09:23:15;;;;;;;14.85;4.95;;;;;;;3.78;100.00;98976.06;5042636;28;20394;-57
2022/01/19 09:25:40;;;;;;;18.13;4.82;;;;;;;3.94;100.00;98969.22;5042550;28;20056;-60
2022/01/19 09:28:07;;;;;;;16.48;4.95;;;;;;;3.99;100.00;98965.78;5043054;28;20029;-59
2022/01/19 09:30:33;;;;;;;12.82;4.68;;;;;;;4.30;100.00;98960.66;5042248;28;20041;-59
2022/01/19 09:33:18;;;;;;;18.90;4.82;;;;;;;4.51;100.00;98958.91;5043026;28;20024;-59
2022/01/19 09:36:05;;;;;;;13.65;5.05;;;;;;;4.39;100.00;98955.47;5041860;28;20357;-58
2022/01/19 09:38:34;;;;;;;18.67;4.85;;;;;;;4.56;100.00;98942.53;5041459;28;20601;-59
2022/01/19 09:40:59;;;;;;;16.77;4.97;;;;;;;4.82;100.00;98934.69;5041942;28;20318;-60
2022/01/19 09:43:25;;;;;;;15.00;4.32;;;;;;;4.92;100.00;98932.09;5042984;28;20075;-58
2022/01/19 09:45:57;;;;;;;14.23;4.32;;;;;;;4.94;100.00;98935.53;5042126;28;20106;-59
2022/01/19 09:48:24;;;;;;;15.40;4.07;;;;;;;4.89;100.00;98932.09;5042546;28;20044;-59
2022/01/19 09:50:49;;;;;;;13.68;4.10;;;;;;;4.40;100.00;98946.00;5041986;28;20036;-57
2022/01/19 09:53:15;;;;;;;14.30;4.13;;;;;;;4.74;100.00;98938.16;5042766;28;20048;-58
2022/01/19 09:55:43;;;;;;;14.18;4.50;;;;;;;5.05;100.00;98944.09;5042099;28;20564;-58
2022/01/19 09:58:09;;;;;;;15.68;4.57;;;;;;;4.76;100.00;98945.06;5043013;28;20025;-58
2022/01/19 10:00:35;;;;;;;13.80;5.18;;;;;;;5.52;100.00;98937.84;5041527;28;20033;-59
2022/01/19 10:03:13;;;;;;;15.70;5.30;;;;;;;4.87;100.00;98936.41;5042576;28;20466;-57
2022/01/19 10:06:10;;;;;;;15.38;5.63;;;;;;;4.79;100.00;98936.44;5041209;28;20428;-58
2022/01/19 10:08:35;;;;;;;16.15;5.53;;;;;;;4.92;100.00;98940.69;5042304;28;20302;-58
2022/01/19 10:11:13;;;;;;;15.32;5.60;;;;;;;4.57;100.00;98930.47;5041338;28;20156;-56
2022/01/19 10:17:04;;;;;;;18.48;7.00;;;;;;;3.83;100.00;98922.75;5041921;28;20051;-59
2022/01/19 10:19:31;;;;;;;15.60;5.45;;;;;;;5.35;100.00;98913.81;5042465;28;20152;-58
2022/01/19 10:22:07;;;;;;;19.60;7.22;;;;;;;4.82;100.00;98908.84;5040280;28;20033;-58
2022/01/19 10:24:38;;;;;;;16.80;6.90;;;;;;;4.57;100.00;98908.06;5041910;28;20090;-58
2022/01/19 10:27:23;;;;;;;16.20;6.35;;;;;;;5.22;100.00;98908.69;5040025;28;20060;-58
2022/01/19 10:29:50;;;;;;;15.85;6.55;;;;;;;4.53;100.00;98906.34;5041964;28;20494;-58
2022/01/19 10:32:18;;;;;;;16.65;7.10;;;;;;;4.03;100.00;98900.38;5041543;28;20288;-57
2022/01/19 10:34:43;;;;;;;23.83;7.82;;;;;;;3.61;100.00;98899.50;5042181;28;20017;-57
2022/01/19 10:37:09;;;;;;;18.90;6.82;;;;;;;3.58;100.00;98898.63;5040344;28;20114;-58
2022/01/19 10:39:57;;;;;;;16.20;6.72;;;;;;;4.05;100.00;98902.97;5042243;28;20033;-59
2022/01/19 10:42:25;;;;;;;18.35;7.00;;;;;;;4.16;100.00;98905.56;5041447;28;20044;-57
2022/01/19 10:45:16;;;;;;;18.05;7.20;;;;;;;4.49;100.00;98903.78;5042098;28;20114;-57
2022/01/19 10:47:47;;;;;;;19.15;6.85;;;;;;;3.37;100.00;98902.03;5038433;28;20071;-57
2022/01/19 10:50:25;;;;;;;16.83;6.63;;;;;;;3.19;100.00;98895.97;5040928;28;20522;-58
2022/01/19 10:52:53;;;;;;;19.55;7.75;;;;;;;4.00;100.00;98900.38;5041205;28;20024;-58
2022/01/19 10:55:18;;;;;;;15.82;7.03;;;;;;;3.72;100.00;98901.25;5040878;28;20021;-58
2022/01/19 10:57:43;;;;;;;16.33;6.15;;;;;;;4.63;100.00;98902.88;5041443;28;20609;-56
2022/01/19 11:00:22;;;;;;;18.08;7.40;;;;;;;3.47;100.00;98896.03;5041126;28;20053;-58
2022/01/19 11:02:49;;;;;;;16.05;7.57;;;;;;;3.45;100.00;98900.31;5040880;28;20415;-56
2022/01/19 11:05:16;;;;;;;21.27;8.60;;;;;;;3.64;100.00;98891.78;5039066;28;20032;-58
2022/01/19 11:07:42;;;;;;;21.27;8.50;;;;;;;3.38;100.00;98893.44;5041254;28;20183;-58
2022/01/19 11:10:12;;;;;;;20.65;8.13;;;;;;;3.60;100.00;98884.88;5040585;28;20017;-56
2022/01/19 11:12:48;;;;;;;23.13;8.70;;;;;;;3.65;100.00;98890.03;5040976;28;20025;-58
2022/01/19 11:15:17;;;;;;;20.55;8.20;;;;;;;3.93;100.00;98887.47;5040342;28;20506;-57
2022/01/19 11:17:43;;;;;;;26.50;8.57;;;;;;;3.61;100.00;98886.59;5041212;28;20025;-57
2022/01/19 11:20:13;;;;;;;22.75;9.13;;;;;;;3.35;100.00;98877.97;5055895;28;20036;-57
2022/01/19 11:23:02;;;;;;;22.50;8.55;;;;;;;4.13;100.00;98875.41;5040537;28;20483;-58
2022/01/19 11:25:33;;;;;;;20.13;7.85;;;;;;;4.10;100.00;98859.06;5040154;28;20041;-57
2022/01/19 11:27:59;;;;;;;22.75;8.73;;;;;;;3.99;100.00;98862.53;5040643;28;20475;-59
2022/01/19 11:30:32;;;;;;;27.92;9.85;;;;;;;3.62;100.00;98849.63;5040362;28;20144;-57
2022/01/19 11:33:24;;;;;;;22.05;9.55;;;;;;;3.66;100.00;98832.44;5040140;28;20541;-57
2022/01/19 11:35:53;;;;;;;29.23;10.27;;;;;;;3.72;100.00;98831.56;5039951;28;20423;-56
2022/01/19 11:38:34;;;;;;;25.08;10.32;;;;;;;3.51;100.00;98822.97;5040483;28;20033;-57
2022/01/19 11:41:09;;;;;;;27.77;11.35;;;;;;;4.29;100.00;98822.03;5039649;28;20033;-56
2022/01/19 11:43:39;;;;;;;23.92;10.93;;;;;;;4.11;100.00;98804.00;5040860;28;20494;-57
2022/01/19 11:46:25;;;;;;;19.80;8.40;;;;;;;4.85;100.00;98814.06;5039150;28;21464;-57
2022/01/19 11:48:53;;;;;;;23.20;10.25;;;;;;;3.62;100.00;98808.34;5040525;28;20485;-57
2022/01/19 11:51:30;;;;;;;26.98;10.27;;;;;;;3.83;100.00;98804.03;5038934;28;20056;-57
2022/01/19 11:54:04;;;;;;;23.80;11.50;;;;;;;3.53;100.00;98804.88;5040375;28;20025;-59
2022/01/19 11:56:30;;;;;;;30.92;10.88;;;;;;;4.28;100.00;98794.47;5039377;28;20060;-56
2022/01/19 11:59:04;;;;;;;29.85;11.73;;;;;;;4.07;100.00;98781.63;5038511;28;20071;-57
2022/01/19 12:01:29;;;;;;;24.83;10.25;;;;;;;4.59;100.00;98776.28;5039353;28;20049;-57
2022/01/19 12:04:12;;;;;;;23.33;11.10;;;;;;;3.74;100.00;98767.91;5040686;28;20569;-59
2022/01/19 12:06:38;;;;;;;28.25;11.25;;;;;;;4.07;100.00;98760.97;5049614;28;20235;-57
2022/01/19 12:09:04;;;;;;;26.88;11.20;;;;;;;3.93;100.00;98759.25;5039662;28;20111;-56
2022/01/19 12:11:31;;;;;;;23.38;9.98;;;;;;;4.21;100.00;98751.47;5038882;28;20036;-56
2022/01/19 12:14:10;;;;;;;22.70;10.90;;;;;;;4.27;100.00;98745.41;5040064;28;20043;-58
2022/01/19 12:19:10;;;;;;;23.27;11.07;;;;;;;4.83;100.00;98727.06;5040345;28;20250;-56
2022/01/19 12:21:48;;;;;;;23.35;10.80;;;;;;;4.52;100.00;98734.13;5039427;28;20045;-58
2022/01/19 12:24:26;;;;;;;24.20;11.48;;;;;;;4.46;100.00;98728.13;5040190;28;20037;-57
2022/01/19 12:26:53;;;;;;;20.65;10.10;;;;;;;4.50;100.00;98717.75;5039263;28;20098;-57
2022/01/19 12:29:34;;;;;;;29.10;12.25;;;;;;;4.31;100.00;98704.06;5039649;28;20060;-57
2022/01/19 12:32:23;;;;;;;30.48;12.18;;;;;;;4.20;100.00;98700.69;5038551;28;20041;-58
2022/01/19 12:34:51;;;;;;;23.63;10.85;;;;;;;4.83;100.00;98687.41;4991447;28;20225;-57
2022/01/19 12:37:32;;;;;;;25.52;11.65;;;;;;;4.03;100.00;98685.25;5039238;28;20043;-57
2022/01/19 12:39:58;;;;;;;24.92;11.45;;;;;;;4.48;100.00;98692.78;5039690;28;20029;-58
2022/01/19 12:42:32;;;;;;;24.52;12.10;;;;;;;4.56;100.00;98678.13;5038928;28;20583;-57
2022/01/19 12:45:00;;;;;;;18.15;7.07;;;;;;;5.20;100.00;98681.94;5041643;28;20025;-56
2022/01/19 12:47:28;;;;;;;25.67;11.35;;;;;;;5.13;100.00;98678.56;5043204;28;20037;-57
2022/01/19 12:49:58;;;;;;;23.17;11.70;;;;;;;4.86;100.00;98677.03;5043797;28;20028;-57
2022/01/19 12:52:26;;;;;;;24.95;11.60;;;;;;;4.72;100.00;98674.53;5043383;28;20447;-58
2022/01/19 12:54:54;;;;;;;23.73;11.70;;;;;;;4.50;100.00;98678.13;5043918;28;20493;-57
2022/01/19 12:57:20;;;;;;;25.65;11.73;;;;;;;4.40;100.00;98673.03;5042780;28;20426;-57
2022/01/19 12:59:48;;;;;;;29.60;12.30;;;;;;;4.58;100.00;98673.81;5043189;28;20029;-56